Flight Track Log - Related Links

Times and Time Zones

All times are in EDT time to prevent confusion due to time zone crossing. See the QLK496 flight status page for this flight to view local times or setup timezone preferences in your user account.

Time Position Orientation Groundspeed Altitude Reporting Facility
EDT Latitude Longitude Course Direction KTS MPH feet Rate Location/Type
Wed 11:00:20 PM -16.8977 145.7614 58° Northeast 141 162 700  Level Aus ATC (RADAR)
Wed 11:00:55 PM -16.8858 145.7812 58° Northeast 161 185 1,500 1,400 Climbing Aus ATC (RADAR)
Wed 11:01:50 PM -16.8423 145.7851 North 169 194 2,800 1,511 Climbing Aus ATC (RADAR)
Wed 11:03:10 PM -16.7799 145.7891 North 172 198 4,900 1,461 Climbing Aus ATC (RADAR)
Wed 11:03:45 PM -16.7520 145.7867 355° North 180 207 5,600 1,200 Climbing Aus ATC (RADAR)
Wed 11:04:00 PM -16.7411 145.7791 326° Northwest 186 214 5,900 1,200 Climbing Aus ATC (RADAR)
Wed 11:04:35 PM -16.7154 145.7612 326° Northwest 191 220 6,600 1,200 Climbing Aus ATC (RADAR)
Wed 11:05:45 PM -16.6602 145.7273 329° Northwest 197 227 8,000 1,257 Climbing Aus ATC (RADAR)
Wed 11:06:20 PM -16.6326 145.7105 330° Northwest 196 226 8,800 1,200 Climbing Aus ATC (RADAR)
Wed 11:07:10 PM -16.5947 145.6873 330° Northwest 190 219 9,700 960 Climbing Aus ATC (RADAR)
Wed 11:08:25 PM -16.5372 145.6522 330° Northwest 193 222 10,800 933 Climbing Aus ATC (RADAR)
Wed 11:08:40 PM -16.5260 145.6451 328° Northwest 192 221 11,100 873 Climbing Aus ATC (RADAR)
Wed 11:09:20 PM -16.4954 145.6258 329° Northwest 193 222 11,600 766 Climbing Aus ATC (RADAR)
Wed 11:10:14 PM -16.4529 145.5997 330° Northwest 194 223 12,300 742 Climbing Aus ATC (RADAR)
Wed 11:10:49 PM -16.4259 145.5832 330° Northwest 194 223 12,700 600 Climbing Aus ATC (RADAR)
Wed 11:11:44 PM -16.3821 145.5564 330° Northwest 200 230 13,200 600 Climbing Aus ATC (RADAR)
Wed 11:12:19 PM -16.3530 145.5387 330° Northwest 206 237 13,600 600 Climbing Aus ATC (RADAR)
Wed 11:13:24 PM -16.2990 145.5057 330° Northwest 209 241 14,200 525 Climbing Aus ATC (RADAR)
Wed 11:13:39 PM -16.2862 145.4980 330° Northwest 211 243 14,300 480 Climbing Aus ATC (RADAR)
Wed 11:14:14 PM -16.2565 145.4795 329° Northwest 213 245 14,600 533 Climbing Aus ATC (RADAR)
Wed 11:15:09 PM -16.2084 145.4505 330° Northwest 218 251 15,100 667 Climbing Aus ATC (RADAR)
Wed 11:15:44 PM -16.1780 145.4326 331° Northwest 216 249 15,600 568 Climbing Aus ATC (RADAR)
Wed 11:16:44 PM -16.1261 145.4012 330° Northwest 218 251 16,000 505 Climbing Aus ATC (RADAR)
Wed 11:17:19 PM -16.0958 145.3828 330° Northwest 215 247 16,400 578 Climbing Aus ATC (RADAR)
Wed 11:18:59 PM -16.0086 145.3296 330° Northwest 214 246 17,300 626 Climbing Aus ATC (RADAR)
Wed 11:19:14 PM -15.9960 145.3222 330° Northwest 213 245 17,600 600 Climbing Aus ATC (RADAR)
Wed 11:19:49 PM -15.9673 145.3047 330° Northwest 207 238 17,800 511 Climbing Aus ATC (RADAR)
Wed 11:20:48 PM -15.9180 145.2747 330° Northwest 204 235 18,400 574 Climbing Aus ATC (RADAR)
Wed 11:21:23 PM -15.8897 145.2579 330° Northwest 201 231 18,700 467 Climbing Aus ATC (RADAR)
Wed 11:22:18 PM -15.8441 145.2307 330° Northwest 203 234 19,100 415 Climbing Aus ATC (RADAR)
Wed 11:23:33 PM -15.7819 145.1923 329° Northwest 209 241 19,600 400 Climbing Aus ATC (RADAR)
Wed 11:23:48 PM -15.7691 145.1848 330° Northwest 210 242 19,700 327 Climbing Aus ATC (RADAR)
Wed 11:24:28 PM -15.7350 145.1643 330° Northwest 213 245 19,900 379 Climbing Aus ATC (RADAR)
Wed 11:25:23 PM -15.6878 145.1357 330° Northwest 214 246 20,300 400 Climbing Aus ATC (RADAR)
Wed 11:25:58 PM -15.6583 145.1148 326° Northwest 218 251 20,500 333 Climbing Aus ATC (RADAR)
Wed 11:26:53 PM -15.6101 145.0866 331° Northwest 219 252 20,800 400 Climbing Aus ATC (RADAR)
Wed 11:27:28 PM -15.5800 145.0682 330° Northwest 216 249 21,100 420 Climbing Aus ATC (RADAR)
Wed 11:28:33 PM -15.5232 145.0338 330° Northwest 217 250 21,500 300 Climbing Aus ATC (RADAR)
Wed 11:28:48 PM -15.5098 145.0262 331° Northwest 218 251 21,500 218 Level Aus ATC (RADAR)
Wed 11:29:28 PM -15.4744 145.0044 329° Northwest 223 257 21,700 316 Climbing Aus ATC (RADAR)
Wed 11:30:23 PM -15.4253 144.9745 330° Northwest 222 255 22,000 189 Climbing Aus ATC (RADAR)
Wed 11:31:03 PM -15.3889 144.9520 329° Northwest 228 262 22,000  Level Aus ATC (RADAR)
Wed 11:31:52 PM -15.3410 144.9237 330° Northwest 237 273 22,000  Level Aus ATC (RADAR)
Wed 11:32:07 PM -15.3263 144.9145 329° Northwest 241 277 22,000  Level Aus ATC (RADAR)
Wed 11:32:42 PM -15.2913 144.8943 331° Northwest 247 284 22,000  Level Aus ATC (RADAR)
Wed 11:34:07 PM -15.2052 144.8419 330° Northwest 253 291 22,000  Level Aus ATC (RADAR)
Wed 11:34:22 PM -15.1899 144.8323 329° Northwest 255 293 22,000  Level Aus ATC (RADAR)
Wed 11:34:57 PM -15.1535 144.8106 330° Northwest 258 297 22,000  Level Aus ATC (RADAR)
Wed 11:35:57 PM -15.0915 144.7723 329° Northwest 259 298 22,000  Level Aus ATC (RADAR)
Wed 11:36:37 PM -15.0495 144.7468 330° Northwest 262 302 22,000  Level Aus ATC (RADAR)
Wed 11:37:32 PM -14.9917 144.7127 330° Northwest 262 302 22,000  Level Aus ATC (RADAR)
Wed 11:38:27 PM -14.9342 144.6780 330° Northwest 261 300 22,000  Level Aus ATC (RADAR)
Wed 11:39:07 PM -14.8921 144.6523 329° Northwest 263 303 22,000  Level Aus ATC (RADAR)
Wed 11:39:22 PM -14.8763 144.6431 331° Northwest 262 302 22,000  Level Aus ATC (RADAR)
Wed 11:39:57 PM -14.8395 144.6208 330° Northwest 263 303 22,000  Level Aus ATC (RADAR)
Wed 11:40:42 PM -14.7918 144.5921 330° Northwest 263 303 22,000  Level Aus ATC (RADAR)
Wed 11:41:17 PM -14.7551 144.5703 330° Northwest 262 302 22,000  Level Aus ATC (RADAR)
Wed 11:42:16 PM -14.6925 144.5317 329° Northwest 261 300 22,000  Level Aus ATC (RADAR)
Wed 11:42:51 PM -14.6552 144.5101 331° Northwest 262 302 22,000  Level Aus ATC (RADAR)
Wed 11:43:56 PM -14.5852 144.4713 332° Northwest 264 304 22,000  Level Aus ATC (RADAR)
Wed 11:44:12 PM -14.5692 144.4625 332° Northwest 262 302 22,000  Level Aus ATC (RADAR)
Wed 11:44:46 PM -14.5313 144.4417 332° Northwest 263 303 22,000  Level Aus ATC (RADAR)
Wed 11:45:46 PM -14.4670 144.4052 331° Northwest 263 303 22,000  Level Aus ATC (RADAR)
Wed 11:46:21 PM -14.4292 144.3834 331° Northwest 265 305 22,000  Level Aus ATC (RADAR)
Wed 11:47:21 PM -14.3640 144.3476 332° Northwest 264 304 22,000  Level Aus ATC (RADAR)
Wed 11:47:56 PM -14.3256 144.3277 333° Northwest 263 303 22,000  Level Aus ATC (RADAR)
Wed 11:49:26 PM -14.2282 144.2733 332° Northwest 264 304 22,000  Level Aus ATC (RADAR)
Wed 11:49:41 PM -14.2118 144.2642 332° Northwest 265 305 22,000  Level Aus ATC (RADAR)
Wed 11:50:21 PM -14.1682 144.2410 333° Northwest 263 303 22,000  Level Aus ATC (RADAR)
Wed 11:51:16 PM -14.1090 144.2073 331° Northwest 263 303 22,000  Level Aus ATC (RADAR)
Wed 11:51:51 PM -14.0710 144.1852 331° Northwest 267 307 22,000  Level Aus ATC (RADAR)
Wed 11:52:31 PM -14.0290 144.1585 328° Northwest 273 314 22,000  Level Aus ATC (RADAR)
Wed 11:55:36 PM -13.7833 144.0232 332° Northwest 22,000  Level Aus ATC (Calculated)
Wed 11:57:00 PM -13.6990 143.9769 332° Northwest  Level FlightAware Approximate
Wed 11:58:00 PM -13.6388 143.9438 332° Northwest  Level FlightAware Approximate
Wed 11:58:29 PM -13.5836 143.9135 332° Northwest 22,000  Level Aus ATC (Calculated)
Thu 12:00:00 AM -13.4923 143.8634 332° Northwest  Level FlightAware Approximate
Thu 12:01:00 AM -13.4320 143.8303 332° Northwest  Level FlightAware Approximate
Thu 12:02:00 AM -13.3718 143.7973 332° Northwest  Level FlightAware Approximate
Thu 12:03:00 AM -13.3116 143.7643 332° Northwest  Level FlightAware Approximate
Thu 12:04:00 AM -13.2513 143.7314 332° Northwest  Level FlightAware Approximate
Thu 12:05:00 AM -13.1911 143.6984 332° Northwest  Level FlightAware Approximate
Thu 12:06:00 AM -13.1308 143.6654 332° Northwest  Level FlightAware Approximate
Thu 12:07:00 AM -13.0706 143.6325 332° Northwest  Level FlightAware Approximate
Thu 12:08:00 AM -13.0103 143.5996 332° Northwest  Level FlightAware Approximate
Thu 12:08:31 AM -12.9344 143.5581 152° Southeast 22,000  Level Aus ATC (Calculated)
Thu 12:09:00 AM -12.9501 143.5667 332° Northwest  Level FlightAware Approximate
Thu 12:10:00 AM -12.8450 143.5094 332° Northwest  Level FlightAware Approximate
Thu 12:11:00 AM -12.7847 143.4765 332° Northwest  Level FlightAware Approximate
Thu 12:11:10 AM -12.7720 143.4696 332° Northwest 22,000  Level Aus ATC (Calculated)
Thu 12:12:00 AM -12.7038 143.4324 152° Southeast -26,400 Descending Aus ATC (Calculated)
Thu 12:13:00 AM -12.7641 143.4651 152° Southeast  Level FlightAware Approximate
Thu 12:14:00 AM -12.7038 143.4324 332° Northwest  Level FlightAware Approximate
Thu 12:15:00 AM -12.7641 143.4651 152° Southeast  Level FlightAware Approximate
Thu 12:15:02 AM -12.5060 143.3249 152° Southeast 400  Level Aus ATC (Calculated)
Thu 12:17:00 AM -12.6246 143.3893 152° Southeast  Level FlightAware Approximate
Thu 12:18:00 AM -12.6849 143.4221 152° Southeast  Level FlightAware Approximate
Thu 12:19:00 AM -12.6818 143.4204 332° Northwest  Level FlightAware Approximate
Thu 12:20:00 AM -12.6215 143.3876 332° Northwest  Level FlightAware Approximate
Thu 12:20:17 AM -12.1464 143.1298 116° Southeast  Level Aus ATC (Calculated)
Thu 12:20:38 AM -12.1464 143.1298 332° Northwest 400 1,143 Climbing Aus ATC (Calculated)
Thu 12:22:00 AM -12.0640 143.0851 332° Northwest  Level FlightAware Approximate
Thu 12:23:00 AM -12.0036 143.0525 332° Northwest  Level FlightAware Approximate
Thu 12:24:00 AM -11.9433 143.0198 332° Northwest  Level FlightAware Approximate
Thu 12:25:00 AM -11.8830 142.9872 332° Northwest  Level FlightAware Approximate
Thu 12:26:00 AM -11.8227 142.9545 332° Northwest  Level FlightAware Approximate
Thu 12:26:34 AM -11.7566 142.9190 153° Southeast 400  Level Aus ATC (Calculated)
Thu 12:27:00 AM -11.7623 142.9219 332° Northwest  Level FlightAware Approximate
Thu 12:27:27 AM -11.6835 142.8795 279° West  Level Aus ATC (Calculated)
Thu 12:27:27 AM -11.6835 142.8795 332° Northwest  Level Aus ATC (Calculated)
Thu 12:29:00 AM -11.5900 142.8290 332° Northwest  Level FlightAware Approximate
Thu 12:30:00 AM -11.5296 142.7965 332° Northwest  Level FlightAware Approximate
Thu 12:31:00 AM -11.4693 142.7639 332° Northwest  Level FlightAware Approximate
Thu 12:32:00 AM -11.4089 142.7314 332° Northwest  Level FlightAware Approximate
Thu 12:33:00 AM -11.3486 142.6989 332° Northwest  Level FlightAware Approximate
Thu 12:33:42 AM -11.2744 142.6589 152° Southeast 400  Level Aus ATC (Calculated)
Thu 12:34:00 AM -11.2882 142.6664 332° Northwest  Level FlightAware Approximate
Thu 12:35:00 AM -11.1959 142.6167 332° Northwest  Level FlightAware Approximate
Thu 12:36:00 AM -11.1355 142.5842 332° Northwest  Level FlightAware Approximate
Thu 12:36:23 AM -11.1024 142.5665 332° Northwest  Level Aus ATC (Calculated)
Thu 12:38:00 AM -11.0048 142.5140 332° Northwest  Level FlightAware Approximate
Thu 12:39:00 AM -10.9444 142.4816 332° Northwest  Level FlightAware Approximate
Thu 12:40:00 AM -10.8841 142.4492 332° Northwest  Level FlightAware Approximate
Thu 12:41:00 AM -10.8237 142.4168 332° Northwest  Level FlightAware Approximate
Thu 12:42:00 AM -10.7633 142.3844 332° Northwest  Level FlightAware Approximate
Thu 12:43:00 AM -10.7029 142.3520 332° Northwest  Level FlightAware Approximate
Thu 12:44:00 AM -10.6425 142.3196 332° Northwest  Level FlightAware Approximate
Thu 12:45:00 AM -10.5821 142.2872 332° Northwest  Level FlightAware Approximate
Thu 12:46:00 AM -10.5864 142.2900 152° Southeast  Level Estimated
Thu 12:47:00 AM -10.5864 142.2900 156° South  Level Estimated
Thu 12:48:00 AM -10.5864 142.2900 156° South  Level Estimated
Thu 12:49:00 AM -10.5864 142.2900 156° South  Level Estimated
Thu 12:50:00 AM -10.5864 142.2900 156° South  Level Estimated
Thu 12:51:00 AM -10.5864 142.2900 156° South  Level Estimated
Thu 12:52:00 AM -10.5864 142.2900 156° South  Level Estimated
Thu 12:53:00 AM -10.5921 142.2926 332° Northwest  Level FlightAware Approximate
Thu 12:54:00 AM -10.5864 142.2900 332° Northwest  Level Estimated
Thu 12:55:00 AM -10.5921 142.2926 332° Northwest  Level FlightAware Approximate
Thu 12:56:00 AM -10.5864 142.2900 332° Northwest  Level Estimated
Thu 12:57:00 AM -10.5921 142.2926 332° Northwest  Level FlightAware Approximate
Thu 12:58:00 AM -10.5864 142.2900 332° Northwest  Level Estimated
Thu 12:59:00 AM -10.5921 142.2926 332° Northwest  Level FlightAware Approximate

Login

Don't have an account? Register now (free) for customized features, flight alerts, and more!